TimeCST,TemperatureF,Dew PointF,Humidity,Sea Level PressureIn,VisibilityMPH,Wind Direction,Wind SpeedMPH,Gust SpeedMPH,PrecipitationIn,Events,Conditions,WindDirDegrees,DateUTC
12:02 AM,21.2,17.6,86,30.16,10.0,NNE,9.2,-,N/A,,Overcast,20,2013-02-08 06:02:00
12:54 AM,21.0,16.0,81,30.23,10.0,NNE,12.7,20.7,N/A,,Overcast,30,2013-02-08 06:54:00
1:54 AM,19.9,15.1,81,30.25,10.0,NNE,13.8,-,N/A,,Overcast,30,2013-02-08 07:54:00
2:06 AM,19.4,14.0,80,30.18,10.0,NNE,9.2,20.7,N/A,,Overcast,30,2013-02-08 08:06:00
2:54 AM,19.0,12.0,74,30.25,10.0,NNE,13.8,19.6,N/A,,Mostly Cloudy,20,2013-02-08 08:54:00
3:54 AM,16.0,10.0,77,30.27,10.0,NNE,9.2,-,N/A,,Partly Cloudy,20,2013-02-08 09:54:00
4:54 AM,14.0,8.1,77,30.29,10.0,North,8.1,-,N/A,,Clear,10,2013-02-08 10:54:00
6:54 AM,8.1,3.9,83,30.35,10.0,North,4.6,-,N/A,,Clear,350,2013-02-08 12:54:00
7:54 AM,12.0,6.1,77,30.37,10.0,North,8.1,-,N/A,,Clear,10,2013-02-08 13:54:00
8:54 AM,12.9,6.1,74,30.39,10.0,NNE,6.9,-,N/A,,Clear,20,2013-02-08 14:54:00
9:54 AM,15.1,7.0,70,30.40,10.0,NNE,8.1,-,N/A,,Clear,20,2013-02-08 15:54:00
10:54 AM,17.1,7.0,65,30.40,10.0,NNE,5.8,-,N/A,,Clear,20,2013-02-08 16:54:00
11:54 AM,19.0,8.1,62,30.40,10.0,NE,3.5,-,N/A,,Clear,40,2013-02-08 17:54:00
12:54 PM,19.9,7.0,57,30.39,10.0,ENE,3.5,-,N/A,,Clear,60,2013-02-08 18:54:00
1:54 PM,21.9,10.0,60,30.38,10.0,Calm,Calm,-,N/A,,Clear,0,2013-02-08 19:54:00
2:54 PM,19.9,7.0,57,30.38,10.0,Calm,Calm,-,N/A,,Clear,0,2013-02-08 20:54:00
3:54 PM,19.9,7.0,57,30.38,10.0,South,3.5,-,N/A,,Clear,170,2013-02-08 21:54:00
4:54 PM,19.0,6.1,57,30.37,10.0,Calm,Calm,-,N/A,,Clear,0,2013-02-08 22:54:00
5:54 PM,14.0,6.1,71,30.38,10.0,Calm,Calm,-,N/A,,Clear,0,2013-02-08 23:54:00
6:54 PM,10.9,5.0,77,30.39,10.0,Calm,Calm,-,N/A,,Clear,0,2013-02-09 00:54:00
7:54 PM,10.0,5.0,80,30.39,10.0,Calm,Calm,-,N/A,,Clear,0,2013-02-09 01:54:00
8:54 PM,9.0,3.9,80,30.39,10.0,Calm,Calm,-,N/A,,Clear,0,2013-02-09 02:54:00
9:54 PM,5.0,1.0,84,30.39,10.0,ESE,3.5,-,N/A,,Clear,120,2013-02-09 03:54:00
10:54 PM,6.1,3.0,87,30.38,10.0,Calm,Calm,-,N/A,,Clear,0,2013-02-09 04:54:00
11:54 PM,8.1,3.9,83,30.37,10.0,SE,5.8,-,N/A,,Clear,130,2013-02-09 05:54:00